sensor_id;sensor_type;location;lat;lon;timestamp;temperature;humidity
6930;DHT22;3504;52.616;13.238;2023-04-03T00:04:57;1.30;71.08
6930;DHT22;3504;52.616;13.238;2023-04-03T00:09:57;1.33;70.83
6930;DHT22;3504;52.616;13.238;2023-04-03T00:14:58;1.27;70.88
6930;DHT22;3504;52.616;13.238;2023-04-03T00:19:58;1.26;70.98
6930;DHT22;3504;52.616;13.238;2023-04-03T00:24:59;1.22;71.22
6930;DHT22;3504;52.616;13.238;2023-04-03T00:29:59;1.13;71.23
6930;DHT22;3504;52.616;13.238;2023-04-03T00:35:00;1.04;71.44
6930;DHT22;3504;52.616;13.238;2023-04-03T00:40:04;1.00;71.42
6930;DHT22;3504;52.616;13.238;2023-04-03T00:50:06;0.97;71.66
6930;DHT22;3504;52.616;13.238;2023-04-03T00:55:09;0.96;71.48
6930;DHT22;3504;52.616;13.238;2023-04-03T01:00:14;0.95;71.52
6930;DHT22;3504;52.616;13.238;2023-04-03T01:05:17;0.93;71.67
6930;DHT22;3504;52.616;13.238;2023-04-03T01:10:20;0.92;71.56
6930;DHT22;3504;52.616;13.238;2023-04-03T01:15:25;0.89;71.45
6930;DHT22;3504;52.616;13.238;2023-04-03T01:25:54;0.80;71.77
6930;DHT22;3504;52.616;13.238;2023-04-03T01:36:26;0.73;71.99
6930;DHT22;3504;52.616;13.238;2023-04-03T01:41:29;0.69;71.96
6930;DHT22;3504;52.616;13.238;2023-04-03T01:46:37;0.70;72.17
6930;DHT22;3504;52.616;13.238;2023-04-03T01:51:38;0.65;72.19
6930;DHT22;3504;52.616;13.238;2023-04-03T01:56:38;0.65;72.21
6930;DHT22;3504;52.616;13.238;2023-04-03T02:01:39;0.61;72.31
6930;DHT22;3504;52.616;13.238;2023-04-03T02:06:40;0.54;72.32
6930;DHT22;3504;52.616;13.238;2023-04-03T02:11:41;0.52;72.54
6930;DHT22;3504;52.616;13.238;2023-04-03T02:16:41;0.48;72.08
6930;DHT22;3504;52.616;13.238;2023-04-03T02:21:42;0.28;73.34
6930;DHT22;3504;52.616;13.238;2023-04-03T02:26:42;0.14;73.63
6930;DHT22;3504;52.616;13.238;2023-04-03T02:31:43;0.13;73.87
6930;DHT22;3504;52.616;13.238;2023-04-03T02:36:43;0.16;73.62
6930;DHT22;3504;52.616;13.238;2023-04-03T02:41:46;0.17;73.39
6930;DHT22;3504;52.616;13.238;2023-04-03T02:46:53;0.16;73.33
6930;DHT22;3504;52.616;13.238;2023-04-03T02:51:53;0.18;73.21
6930;DHT22;3504;52.616;13.238;2023-04-03T02:56:54;0.18;73.00
6930;DHT22;3504;52.616;13.238;2023-04-03T03:01:55;0.18;72.97
6930;DHT22;3504;52.616;13.238;2023-04-03T03:06:56;0.13;73.30
6930;DHT22;3504;52.616;13.238;2023-04-03T03:11:57;0.10;73.31
6930;DHT22;3504;52.616;13.238;2023-04-03T03:16:57;0.07;73.48
6930;DHT22;3504;52.616;13.238;2023-04-03T03:21:58;0.10;74.65
6930;DHT22;3504;52.616;13.238;2023-04-03T03:26:58;0.11;73.75
6930;DHT22;3504;52.616;13.238;2023-04-03T03:31:59;0.13;73.52
6930;DHT22;3504;52.616;13.238;2023-04-03T03:37:00;0.13;73.42
6930;DHT22;3504;52.616;13.238;2023-04-03T03:42:00;0.04;73.28
6930;DHT22;3504;52.616;13.238;2023-04-03T03:47:01;0.04;73.32
6930;DHT22;3504;52.616;13.238;2023-04-03T03:52:03;-0.04;73.56
6930;DHT22;3504;52.616;13.238;2023-04-03T03:57:04;-0.07;73.58
6930;DHT22;3504;52.616;13.238;2023-04-03T04:02:05;-0.09;73.71
6930;DHT22;3504;52.616;13.238;2023-04-03T04:07:06;-0.13;73.57
6930;DHT22;3504;52.616;13.238;2023-04-03T04:12:08;-0.14;73.78
6930;DHT22;3504;52.616;13.238;2023-04-03T04:17:09;-0.18;73.84
6930;DHT22;3504;52.616;13.238;2023-04-03T04:22:11;-0.24;73.94
6930;DHT22;3504;52.616;13.238;2023-04-03T04:27:12;-0.24;73.93
6930;DHT22;3504;52.616;13.238;2023-04-03T04:32:12;-0.24;73.98
6930;DHT22;3504;52.616;13.238;2023-04-03T04:37:13;-0.18;73.94
6930;DHT22;3504;52.616;13.238;2023-04-03T04:42:14;-0.21;74.01
6930;DHT22;3504;52.616;13.238;2023-04-03T04:47:16;-0.24;74.00
6930;DHT22;3504;52.616;13.238;2023-04-03T04:52:17;-0.25;73.89
6930;DHT22;3504;52.616;13.238;2023-04-03T04:57:19;-0.27;74.00
6930;DHT22;3504;52.616;13.238;2023-04-03T05:02:21;-0.28;74.21
6930;DHT22;3504;52.616;13.238;2023-04-03T05:07:22;-0.31;74.29
6930;DHT22;3504;52.616;13.238;2023-04-03T05:12:23;-0.31;74.45
6930;DHT22;3504;52.616;13.238;2023-04-03T05:17:29;-0.34;74.62
6930;DHT22;3504;52.616;13.238;2023-04-03T05:22:31;-0.31;74.98
6930;DHT22;3504;52.616;13.238;2023-04-03T05:27:38;-0.30;75.35
6930;DHT22;3504;52.616;13.238;2023-04-03T05:32:39;-0.17;75.86
6930;DHT22;3504;52.616;13.238;2023-04-03T05:37:52;-0.13;76.49
6930;DHT22;3504;52.616;13.238;2023-04-03T05:42:53;-0.02;76.60
6930;DHT22;3504;52.616;13.238;2023-04-03T05:47:55;0.07;76.95
6930;DHT22;3504;52.616;13.238;2023-04-03T05:52:57;0.16;77.41
6930;DHT22;3504;52.616;13.238;2023-04-03T05:58:01;0.26;77.14
6930;DHT22;3504;52.616;13.238;2023-04-03T06:03:01;0.33;76.87
6930;DHT22;3504;52.616;13.238;2023-04-03T06:08:03;0.40;76.65
6930;DHT22;3504;52.616;13.238;2023-04-03T06:13:04;0.52;76.60
6930;DHT22;3504;52.616;13.238;2023-04-03T06:18:06;0.65;76.01
6930;DHT22;3504;52.616;13.238;2023-04-03T06:23:08;0.78;75.79
6930;DHT22;3504;52.616;13.238;2023-04-03T06:28:09;0.93;74.75
6930;DHT22;3504;52.616;13.238;2023-04-03T06:33:10;1.10;74.42
6930;DHT22;3504;52.616;13.238;2023-04-03T06:38:10;1.26;72.48
6930;DHT22;3504;52.616;13.238;2023-04-03T06:43:11;1.39;72.34
6930;DHT22;3504;52.616;13.238;2023-04-03T06:48:12;1.55;71.90
6930;DHT22;3504;52.616;13.238;2023-04-03T06:53:13;1.72;70.18
6930;DHT22;3504;52.616;13.238;2023-04-03T06:58:13;1.85;68.82
6930;DHT22;3504;52.616;13.238;2023-04-03T07:03:15;2.01;68.18
6930;DHT22;3504;52.616;13.238;2023-04-03T07:08:16;2.20;67.16
6930;DHT22;3504;52.616;13.238;2023-04-03T07:13:17;2.42;66.14
6930;DHT22;3504;52.616;13.238;2023-04-03T07:18:17;2.60;64.29
6930;DHT22;3504;52.616;13.238;2023-04-03T07:23:20;2.76;63.07
6930;DHT22;3504;52.616;13.238;2023-04-03T07:28:21;2.85;61.14
6930;DHT22;3504;52.616;13.238;2023-04-03T07:33:23;3.15;60.72
6930;DHT22;3504;52.616;13.238;2023-04-03T07:38:24;3.40;60.98
6930;DHT22;3504;52.616;13.238;2023-04-03T07:43:28;3.83;59.42
6930;DHT22;3504;52.616;13.238;2023-04-03T07:48:28;3.90;57.17
6930;DHT22;3504;52.616;13.238;2023-04-03T07:53:29;3.87;56.61
6930;DHT22;3504;52.616;13.238;2023-04-03T07:58:30;3.80;56.43
6930;DHT22;3504;52.616;13.238;2023-04-03T08:03:31;3.89;55.27
6930;DHT22;3504;52.616;13.238;2023-04-03T08:08:31;3.71;56.35
6930;DHT22;3504;52.616;13.238;2023-04-03T08:13:33;3.45;56.54
6930;DHT22;3504;52.616;13.238;2023-04-03T08:18:35;3.42;58.06
6930;DHT22;3504;52.616;13.238;2023-04-03T08:23:35;3.53;56.71
6930;DHT22;3504;52.616;13.238;2023-04-03T08:28:36;3.48;56.80
6930;DHT22;3504;52.616;13.238;2023-04-03T08:33:38;3.52;57.66
6930;DHT22;3504;52.616;13.238;2023-04-03T08:38:38;3.95;55.63
6930;DHT22;3504;52.616;13.238;2023-04-03T08:44:29;4.38;54.91
6930;DHT22;3504;52.616;13.238;2023-04-03T08:49:42;4.26;52.62
6930;DHT22;3504;52.616;13.238;2023-04-03T08:54:58;4.14;52.01
6930;DHT22;3504;52.616;13.238;2023-04-03T09:00:26;4.24;53.73
6930;DHT22;3504;52.616;13.238;2023-04-03T09:10:49;4.20;53.79
6930;DHT22;3504;52.616;13.238;2023-04-03T09:15:53;4.32;53.99
6930;DHT22;3504;52.616;13.238;2023-04-03T09:21:13;4.29;53.78
6930;DHT22;3504;52.616;13.238;2023-04-03T09:31:42;4.94;52.60
6930;DHT22;3504;52.616;13.238;2023-04-03T09:42:19;5.06;50.99
6930;DHT22;3504;52.616;13.238;2023-04-03T09:47:31;4.96;50.81
6930;DHT22;3504;52.616;13.238;2023-04-03T09:52:33;5.51;49.83
6930;DHT22;3504;52.616;13.238;2023-04-03T09:57:34;5.88;49.46
6930;DHT22;3504;52.616;13.238;2023-04-03T10:02:38;5.59;47.81
6930;DHT22;3504;52.616;13.238;2023-04-03T10:07:39;5.52;47.13
6930;DHT22;3504;52.616;13.238;2023-04-03T10:12:40;5.47;47.41
6930;DHT22;3504;52.616;13.238;2023-04-03T10:17:57;5.51;47.35
6930;DHT22;3504;52.616;13.238;2023-04-03T10:23:24;5.55;45.82
6930;DHT22;3504;52.616;13.238;2023-04-03T10:28:48;5.48;46.14
6930;DHT22;3504;52.616;13.238;2023-04-03T10:45:08;6.44;44.41
6930;DHT22;3504;52.616;13.238;2023-04-03T11:01:41;6.14;45.99
6930;DHT22;3504;52.616;13.238;2023-04-03T11:11:47;6.16;45.78
6930;DHT22;3504;52.616;13.238;2023-04-03T11:17:01;6.11;45.18
6930;DHT22;3504;52.616;13.238;2023-04-03T11:22:36;6.33;42.71
6930;DHT22;3504;52.616;13.238;2023-04-03T11:33:02;6.13;45.30
6930;DHT22;3504;52.616;13.238;2023-04-03T11:38:05;5.92;45.24
6930;DHT22;3504;52.616;13.238;2023-04-03T11:43:29;5.86;45.59
6930;DHT22;3504;52.616;13.238;2023-04-03T11:53:38;5.90;46.26
6930;DHT22;3504;52.616;13.238;2023-04-03T11:58:39;6.14;46.83
6930;DHT22;3504;52.616;13.238;2023-04-03T12:40:07;6.13;48.29
6930;DHT22;3504;52.616;13.238;2023-04-03T12:45:23;6.26;47.57
6930;DHT22;3504;52.616;13.238;2023-04-03T12:50:28;6.03;47.14
6930;DHT22;3504;52.616;13.238;2023-04-03T12:55:30;6.21;48.70
6930;DHT22;3504;52.616;13.238;2023-04-03T13:00:35;6.40;46.74
6930;DHT22;3504;52.616;13.238;2023-04-03T13:05:39;6.27;46.16
6930;DHT22;3504;52.616;13.238;2023-04-03T13:10:54;6.30;44.56
6930;DHT22;3504;52.616;13.238;2023-04-03T13:15:57;6.24;46.43
6930;DHT22;3504;52.616;13.238;2023-04-03T13:21:37;6.03;46.38
6930;DHT22;3504;52.616;13.238;2023-04-03T13:26:38;6.02;48.18
6930;DHT22;3504;52.616;13.238;2023-04-03T13:31:39;6.07;48.97
6930;DHT22;3504;52.616;13.238;2023-04-03T13:41:55;6.13;49.19
6930;DHT22;3504;52.616;13.238;2023-04-03T13:52:29;5.78;49.28
6930;DHT22;3504;52.616;13.238;2023-04-03T13:57:30;5.83;48.86
6930;DHT22;3504;52.616;13.238;2023-04-03T14:02:33;5.71;49.51
6930;DHT22;3504;52.616;13.238;2023-04-03T14:07:34;5.68;48.25
6930;DHT22;3504;52.616;13.238;2023-04-03T14:12:37;5.68;49.71
6930;DHT22;3504;52.616;13.238;2023-04-03T14:17:39;5.64;49.97
6930;DHT22;3504;52.616;13.238;2023-04-03T14:22:40;5.51;50.23
6930;DHT22;3504;52.616;13.238;2023-04-03T14:27:44;5.55;50.72
6930;DHT22;3504;52.616;13.238;2023-04-03T14:32:46;5.68;52.56
6930;DHT22;3504;52.616;13.238;2023-04-03T14:37:52;5.86;52.01
6930;DHT22;3504;52.616;13.238;2023-04-03T14:42:53;5.95;50.67
6930;DHT22;3504;52.616;13.238;2023-04-03T14:47:55;6.11;51.19
6930;DHT22;3504;52.616;13.238;2023-04-03T14:52:58;6.09;50.03
6930;DHT22;3504;52.616;13.238;2023-04-03T14:57:59;5.96;50.21
6930;DHT22;3504;52.616;13.238;2023-04-03T15:03:00;5.88;50.46
6930;DHT22;3504;52.616;13.238;2023-04-03T15:08:00;5.69;51.06
6930;DHT22;3504;52.616;13.238;2023-04-03T15:13:01;5.57;51.77
6930;DHT22;3504;52.616;13.238;2023-04-03T15:18:01;5.45;52.18
6930;DHT22;3504;52.616;13.238;2023-04-03T15:23:02;5.41;52.77
6930;DHT22;3504;52.616;13.238;2023-04-03T15:28:02;5.44;53.65
6930;DHT22;3504;52.616;13.238;2023-04-03T15:33:03;5.20;54.75
6930;DHT22;3504;52.616;13.238;2023-04-03T15:38:03;5.13;56.39
6930;DHT22;3504;52.616;13.238;2023-04-03T15:43:06;5.11;57.03
6930;DHT22;3504;52.616;13.238;2023-04-03T15:48:07;5.10;57.16
6930;DHT22;3504;52.616;13.238;2023-04-03T15:53:08;4.97;57.31
6930;DHT22;3504;52.616;13.238;2023-04-03T15:58:09;4.96;56.48
6930;DHT22;3504;52.616;13.238;2023-04-03T16:03:16;5.00;56.33
6930;DHT22;3504;52.616;13.238;2023-04-03T16:08:17;5.01;56.20
6930;DHT22;3504;52.616;13.238;2023-04-03T16:13:18;4.94;56.14
6930;DHT22;3504;52.616;13.238;2023-04-03T16:18:19;4.90;56.22
6930;DHT22;3504;52.616;13.238;2023-04-03T16:23:20;4.96;56.72
6930;DHT22;3504;52.616;13.238;2023-04-03T16:28:21;5.04;56.01
6930;DHT22;3504;52.616;13.238;2023-04-03T16:33:22;5.06;57.29
6930;DHT22;3504;52.616;13.238;2023-04-03T16:38:22;5.16;58.04
6930;DHT22;3504;52.616;13.238;2023-04-03T16:43:23;5.06;58.38
6930;DHT22;3504;52.616;13.238;2023-04-03T16:48:24;4.92;58.69
6930;DHT22;3504;52.616;13.238;2023-04-03T16:53:25;4.72;59.03
6930;DHT22;3504;52.616;13.238;2023-04-03T16:58:26;4.77;59.91
6930;DHT22;3504;52.616;13.238;2023-04-03T17:03:27;4.66;59.64
6930;DHT22;3504;52.616;13.238;2023-04-03T17:08:28;4.58;59.67
6930;DHT22;3504;52.616;13.238;2023-04-03T17:13:29;4.55;60.41
6930;DHT22;3504;52.616;13.238;2023-04-03T17:18:33;4.48;59.88
6930;DHT22;3504;52.616;13.238;2023-04-03T17:23:35;4.48;60.22
6930;DHT22;3504;52.616;13.238;2023-04-03T17:28:36;4.49;60.88
6930;DHT22;3504;52.616;13.238;2023-04-03T17:33:38;4.45;61.33
6930;DHT22;3504;52.616;13.238;2023-04-03T17:38:38;4.49;61.59
6930;DHT22;3504;52.616;13.238;2023-04-03T17:43:39;4.45;61.87
6930;DHT22;3504;52.616;13.238;2023-04-03T17:48:40;4.45;61.94
6930;DHT22;3504;52.616;13.238;2023-04-03T17:53:41;4.35;62.51
6930;DHT22;3504;52.616;13.238;2023-04-03T17:58:43;4.28;62.53
6930;DHT22;3504;52.616;13.238;2023-04-03T18:03:44;4.26;62.55
6930;DHT22;3504;52.616;13.238;2023-04-03T18:08:49;4.31;62.77
6930;DHT22;3504;52.616;13.238;2023-04-03T18:13:51;4.25;62.72
6930;DHT22;3504;52.616;13.238;2023-04-03T18:18:51;4.25;62.73
6930;DHT22;3504;52.616;13.238;2023-04-03T18:23:53;4.11;63.14
6930;DHT22;3504;52.616;13.238;2023-04-03T18:28:57;4.02;63.41
6930;DHT22;3504;52.616;13.238;2023-04-03T18:33:59;3.93;63.86
6930;DHT22;3504;52.616;13.238;2023-04-03T18:39:00;3.90;63.93
6930;DHT22;3504;52.616;13.238;2023-04-03T18:44:04;3.90;64.48
6930;DHT22;3504;52.616;13.238;2023-04-03T18:49:07;3.84;64.73
6930;DHT22;3504;52.616;13.238;2023-04-03T18:54:08;3.84;64.73
6930;DHT22;3504;52.616;13.238;2023-04-03T18:59:08;3.83;64.65
6930;DHT22;3504;52.616;13.238;2023-04-03T19:04:09;3.84;64.53
6930;DHT22;3504;52.616;13.238;2023-04-03T19:09:10;3.83;65.35
6930;DHT22;3504;52.616;13.238;2023-04-03T19:14:11;3.84;65.09
6930;DHT22;3504;52.616;13.238;2023-04-03T19:19:11;3.60;65.79
6930;DHT22;3504;52.616;13.238;2023-04-03T19:24:12;3.53;65.92
6930;DHT22;3504;52.616;13.238;2023-04-03T19:29:13;3.46;66.35
6930;DHT22;3504;52.616;13.238;2023-04-03T19:34:13;3.49;66.52
6930;DHT22;3504;52.616;13.238;2023-04-03T19:39:14;3.40;67.12
6930;DHT22;3504;52.616;13.238;2023-04-03T19:44:14;3.43;67.20
6930;DHT22;3504;52.616;13.238;2023-04-03T19:49:15;3.35;67.53
6930;DHT22;3504;52.616;13.238;2023-04-03T19:54:16;3.36;67.75
6930;DHT22;3504;52.616;13.238;2023-04-03T19:59:16;3.28;67.90
6930;DHT22;3504;52.616;13.238;2023-04-03T20:04:17;3.22;68.21
6930;DHT22;3504;52.616;13.238;2023-04-03T20:09:18;3.15;68.73
6930;DHT22;3504;52.616;13.238;2023-04-03T20:14:21;3.08;68.98
6930;DHT22;3504;52.616;13.238;2023-04-03T20:19:22;2.97;69.25
6930;DHT22;3504;52.616;13.238;2023-04-03T20:24:25;2.95;69.67
6930;DHT22;3504;52.616;13.238;2023-04-03T20:29:28;2.94;69.60
6930;DHT22;3504;52.616;13.238;2023-04-03T20:34:29;2.88;69.81
6930;DHT22;3504;52.616;13.238;2023-04-03T20:39:29;2.80;69.80
6930;DHT22;3504;52.616;13.238;2023-04-03T20:44:30;2.68;70.15
6930;DHT22;3504;52.616;13.238;2023-04-03T20:49:31;2.60;70.45
6930;DHT22;3504;52.616;13.238;2023-04-03T20:54:31;2.54;70.64
6930;DHT22;3504;52.616;13.238;2023-04-03T20:59:33;2.52;70.58
6930;DHT22;3504;52.616;13.238;2023-04-03T21:04:52;2.37;70.73
6930;DHT22;3504;52.616;13.238;2023-04-03T21:20:54;2.33;70.47
6930;DHT22;3504;52.616;13.238;2023-04-03T21:25:56;2.37;70.32
6930;DHT22;3504;52.616;13.238;2023-04-03T21:30:56;2.23;70.79
6930;DHT22;3504;52.616;13.238;2023-04-03T21:35:56;2.10;70.98
6930;DHT22;3504;52.616;13.238;2023-04-03T21:40:57;2.10;70.98
6930;DHT22;3504;52.616;13.238;2023-04-03T21:45:59;2.05;70.98
6930;DHT22;3504;52.616;13.238;2023-04-03T21:51:04;2.03;71.09
6930;DHT22;3504;52.616;13.238;2023-04-03T21:56:05;1.95;71.25
6930;DHT22;3504;52.616;13.238;2023-04-03T22:01:10;1.86;71.37
6930;DHT22;3504;52.616;13.238;2023-04-03T22:06:14;1.84;71.29
6930;DHT22;3504;52.616;13.238;2023-04-03T22:11:15;1.75;71.43
6930;DHT22;3504;52.616;13.238;2023-04-03T22:16:16;1.71;71.69
6930;DHT22;3504;52.616;13.238;2023-04-03T22:21:17;1.60;71.94
6930;DHT22;3504;52.616;13.238;2023-04-03T22:26:17;1.57;72.08
6930;DHT22;3504;52.616;13.238;2023-04-03T22:31:18;1.44;72.53
6930;DHT22;3504;52.616;13.238;2023-04-03T22:36:19;1.37;72.47
6930;DHT22;3504;52.616;13.238;2023-04-03T22:41:20;1.36;72.05
6930;DHT22;3504;52.616;13.238;2023-04-03T22:46:21;1.27;72.66
6930;DHT22;3504;52.616;13.238;2023-04-03T22:51:21;1.17;72.77
6930;DHT22;3504;52.616;13.238;2023-04-03T22:56:22;1.19;72.86
6930;DHT22;3504;52.616;13.238;2023-04-03T23:01:22;1.15;72.87
6930;DHT22;3504;52.616;13.238;2023-04-03T23:06:24;1.10;73.11
6930;DHT22;3504;52.616;13.238;2023-04-03T23:11:25;1.02;73.18
6930;DHT22;3504;52.616;13.238;2023-04-03T23:16:26;0.99;73.14
6930;DHT22;3504;52.616;13.238;2023-04-03T23:21:26;0.95;73.04
6930;DHT22;3504;52.616;13.238;2023-04-03T23:26:27;0.86;73.11
6930;DHT22;3504;52.616;13.238;2023-04-03T23:31:27;0.80;73.17
6930;DHT22;3504;52.616;13.238;2023-04-03T23:36:28;0.75;73.43
6930;DHT22;3504;52.616;13.238;2023-04-03T23:41:28;0.68;73.70
6930;DHT22;3504;52.616;13.238;2023-04-03T23:46:29;0.69;73.61
6930;DHT22;3504;52.616;13.238;2023-04-03T23:51:29;0.61;73.62
6930;DHT22;3504;52.616;13.238;2023-04-03T23:56:30;0.51;73.82
